createdAt,value
2023-02-07T04:46:22.047Z,116.80
2023-02-07T04:49:04.668Z,125.75
2023-02-07T04:51:40.118Z,117.53
2023-02-07T04:54:18.896Z,143.07
2023-02-07T04:56:59.166Z,126.75
2023-02-07T04:59:37.659Z,154.43
2023-02-07T05:02:17.190Z,142.75
2023-02-07T05:04:58.499Z,126.35
2023-02-07T05:07:34.100Z,140.07
2023-02-07T05:10:12.254Z,157.20
2023-02-07T05:12:48.146Z,151.70
2023-02-07T05:15:25.426Z,153.50
2023-02-07T05:18:01.529Z,143.93
2023-02-07T05:20:39.710Z,150.57
2023-02-07T05:23:17.512Z,147.65
2023-02-07T05:28:59.005Z,149.55
2023-02-07T05:34:39.195Z,133.70
2023-02-07T05:40:25.828Z,140.52
2023-02-07T05:43:09.999Z,144.43
2023-02-07T05:45:45.964Z,153.23
2023-02-07T05:54:00.560Z,112.90
2023-02-07T05:56:48.620Z,129.18
2023-02-07T06:05:41.063Z,132.70
2023-02-07T06:08:17.545Z,151.73
2023-02-07T06:10:52.643Z,148.02
2023-02-07T06:16:33.931Z,129.05
2023-02-07T06:19:09.987Z,137.63
2023-02-07T07:47:45.051Z,89.63
2023-02-07T07:50:23.377Z,84.65
2023-02-07T07:53:01.967Z,79.43
2023-02-07T07:55:40.678Z,77.60
2023-02-07T07:58:20.950Z,81.97
2023-02-07T08:00:58.780Z,83.68
2023-02-07T08:03:41.712Z,85.15
2023-02-07T08:06:16.921Z,92.53
2023-02-07T08:08:57.544Z,90.55
2023-02-07T08:11:33.764Z,90.05
2023-02-07T08:16:46.049Z,92.60
2023-02-07T08:23:04.842Z,85.53
2023-02-07T08:47:05.302Z,81.68
2023-02-07T08:52:58.785Z,79.63
2023-02-07T08:55:40.147Z,85.47
2023-02-07T08:58:20.809Z,69.15
2023-02-07T09:01:03.884Z,68.88
2023-02-07T09:03:51.675Z,72.30
2023-02-07T09:06:34.393Z,72.45
2023-02-07T09:09:12.536Z,64.15
2023-02-07T09:11:49.663Z,70.28
2023-02-07T09:14:27.782Z,69.40
2023-02-07T09:17:03.640Z,66.57
2023-02-07T09:19:40.930Z,67.20
2023-02-07T09:22:30.532Z,65.55
2023-02-07T09:25:13.973Z,63.08
2023-02-07T09:27:56.298Z,58.85
2023-02-07T09:30:33.927Z,61.55
2023-02-07T09:33:13.231Z,54.10
2023-02-07T09:35:51.208Z,45.63
2023-02-07T09:38:29.567Z,58.00
2023-02-07T09:41:07.563Z,44.45
2023-02-07T09:43:49.908Z,45.38
2023-02-07T09:46:24.506Z,50.20
2023-02-07T09:49:07.258Z,47.17
2023-02-07T09:51:43.761Z,51.20
2023-02-07T09:54:26.493Z,44.13
2023-02-07T09:57:04.055Z,45.38
2023-02-07T09:59:48.235Z,50.20
2023-02-07T10:02:32.401Z,46.70
2023-02-07T10:05:12.166Z,44.30
2023-02-07T10:07:47.802Z,29.87
2023-02-07T10:10:24.227Z,32.80
2023-02-07T10:13:23.837Z,28.63
2023-02-07T10:16:05.567Z,27.40
2023-02-07T10:18:47.460Z,31.15
2023-02-07T10:21:29.379Z,32.20
2023-02-07T10:24:39.007Z,27.30
2023-02-07T10:27:16.354Z,21.27
2023-02-07T10:29:58.483Z,18.00
2023-02-07T10:32:37.350Z,22.20
2023-02-07T10:35:26.424Z,25.52
2023-02-07T10:38:05.752Z,25.90
2023-02-07T10:40:42.399Z,23.95
2023-02-07T10:43:35.044Z,28.50
2023-02-07T10:46:19.106Z,30.50
2023-02-07T10:49:03.372Z,28.00
2023-02-07T10:51:41.433Z,29.55
2023-02-07T10:54:18.044Z,31.53
2023-02-07T10:57:02.187Z,28.30
2023-02-07T10:59:40.808Z,26.57
2023-02-07T11:02:41.040Z,29.40
2023-02-07T11:05:37.048Z,36.72
2023-02-07T11:08:27.323Z,36.93
2023-02-07T11:11:04.089Z,28.58
2023-02-07T11:13:49.219Z,27.83
2023-02-07T11:16:41.130Z,27.83
2023-02-07T11:22:21.775Z,30.67
2023-02-07T11:33:59.423Z,25.52
2023-02-07T11:36:39.872Z,27.20
2023-02-07T11:39:24.312Z,27.10
2023-02-07T11:51:34.545Z,27.27
2023-02-07T11:54:36.652Z,30.40
2023-02-07T11:57:13.777Z,28.27
2023-02-07T12:03:37.093Z,31.60
2023-02-07T12:06:30.824Z,28.10
2023-02-07T12:18:41.674Z,25.00
2023-02-07T12:21:37.508Z,25.45
2023-02-07T12:24:23.402Z,23.38
2023-02-07T12:27:15.876Z,23.75
2023-02-07T12:30:13.802Z,25.30
2023-02-07T12:35:55.511Z,24.13
2023-02-07T12:41:35.049Z,26.27
2023-02-07T12:47:27.477Z,28.15
2023-02-07T12:50:06.538Z,23.95
2023-02-07T12:52:55.829Z,26.58
2023-02-07T12:55:38.025Z,25.93
2023-02-07T12:58:22.275Z,24.03
2023-02-07T13:01:02.721Z,27.90
2023-02-07T13:03:46.001Z,26.90
2023-02-07T13:06:29.412Z,26.17
2023-02-07T13:09:12.671Z,25.98
2023-02-07T13:11:58.783Z,24.50
2023-02-07T13:14:39.911Z,30.58
2023-02-07T13:17:22.388Z,25.27
2023-02-07T13:20:08.799Z,29.15
2023-02-07T13:22:52.850Z,29.05
2023-02-07T13:25:39.198Z,24.52
2023-02-07T13:28:19.184Z,27.60
2023-02-07T13:30:54.336Z,26.88
2023-02-07T13:33:34.303Z,37.15
2023-02-07T13:42:24.622Z,28.52
2023-02-07T13:45:24.629Z,26.93
2023-02-07T13:47:59.822Z,27.17
2023-02-07T13:50:49.722Z,25.25
2023-02-07T13:53:37.752Z,28.60
2023-02-07T13:56:39.307Z,29.15
2023-02-07T13:59:39.700Z,27.92
2023-02-07T14:05:41.260Z,28.55
2023-02-07T14:08:28.767Z,63.08
2023-02-07T14:11:11.642Z,39.03
2023-02-07T14:13:47.776Z,29.25
2023-02-07T14:19:02.109Z,31.50
2023-02-07T14:24:39.751Z,38.38
2023-02-07T14:28:12.682Z,31.00
2023-02-07T14:31:09.511Z,31.13
2023-02-07T14:33:52.957Z,29.73
2023-02-07T14:45:48.716Z,31.75
2023-02-07T14:48:34.705Z,35.33
2023-02-07T14:54:24.384Z,32.20
2023-02-07T14:57:08.250Z,28.80
2023-02-07T15:02:42.007Z,37.53
2023-02-07T15:05:30.535Z,32.65
2023-02-07T15:08:05.014Z,33.27
2023-02-07T15:10:43.251Z,29.95
2023-02-07T15:13:23.985Z,36.03
2023-02-07T15:16:02.221Z,33.75
2023-02-07T15:18:45.342Z,37.60
2023-02-07T15:21:21.398Z,34.15
2023-02-07T15:23:58.840Z,37.30
2023-02-07T15:26:37.293Z,34.05
2023-02-07T15:29:25.319Z,39.77
2023-02-07T15:32:11.483Z,36.28
2023-02-07T15:34:53.836Z,42.80
2023-02-07T15:37:31.234Z,49.80
2023-02-07T15:40:11.425Z,46.03
2023-02-07T15:43:00.298Z,43.20
2023-02-07T15:48:30.386Z,38.17
2023-02-07T15:51:16.445Z,49.15
2023-02-07T15:56:59.675Z,41.13
2023-02-07T15:59:36.529Z,55.33
2023-02-07T16:02:19.279Z,51.80
2023-02-07T16:04:54.354Z,48.45
2023-02-07T16:07:31.812Z,45.00
2023-02-07T16:10:03.119Z,43.45
2023-02-07T16:12:50.249Z,43.70
2023-02-07T16:15:31.370Z,47.65
2023-02-07T16:18:17.957Z,67.87
2023-02-07T16:27:30.695Z,43.78
2023-02-07T16:30:12.550Z,42.22
2023-02-07T16:32:57.879Z,34.50
2023-02-07T16:35:45.313Z,39.38
2023-02-07T16:38:23.248Z,77.40
2023-02-07T16:40:57.929Z,180.80
2023-02-07T16:43:45.799Z,74.50
2023-02-07T16:46:29.477Z,48.20
2023-02-07T16:49:12.340Z,48.45
2023-02-07T16:51:50.029Z,55.85
2023-02-07T16:54:28.424Z,43.75
2023-02-07T16:57:05.957Z,56.60
2023-02-07T16:59:48.870Z,44.55
2023-02-07T17:02:27.155Z,49.20
2023-02-07T17:05:05.008Z,67.82
2023-02-07T17:07:46.566Z,62.45
2023-02-07T17:19:36.605Z,41.00
2023-02-07T17:22:31.404Z,40.45
2023-02-07T17:25:08.209Z,46.57
2023-02-07T17:30:56.103Z,37.67
2023-02-07T17:33:39.052Z,34.20
2023-02-07T17:39:28.327Z,32.70
2023-02-07T17:42:09.153Z,44.20
2023-02-07T17:44:47.850Z,47.10
2023-02-07T17:47:26.516Z,50.50
2023-02-07T17:55:50.074Z,44.30
2023-02-07T17:58:26.742Z,84.68
2023-02-07T18:01:06.444Z,70.78
2023-02-07T18:03:49.702Z,71.82
2023-02-07T18:06:35.032Z,50.30
2023-02-07T18:09:14.003Z,79.63
2023-02-07T18:11:52.772Z,40.22
2023-02-07T18:14:34.460Z,36.35
2023-02-07T18:17:19.758Z,33.10
2023-02-07T18:20:04.109Z,36.75
2023-02-07T18:22:46.358Z,34.75
2023-02-07T18:25:46.313Z,39.25
2023-02-07T18:32:10.977Z,33.85
2023-02-07T18:35:02.310Z,42.80
2023-02-07T18:37:40.081Z,30.90
2023-02-07T18:40:41.185Z,35.55
2023-02-07T18:46:05.985Z,40.05
2023-02-07T18:48:57.998Z,34.75
2023-02-07T18:54:48.972Z,35.15
2023-02-07T18:57:55.822Z,46.78
2023-02-07T19:00:43.863Z,34.47
2023-02-07T19:09:35.893Z,28.63
2023-02-07T19:12:46.488Z,36.55
2023-02-07T19:15:50.399Z,27.02
2023-02-07T19:18:47.940Z,31.75
2023-02-07T19:24:42.849Z,27.08
2023-02-07T19:27:48.082Z,30.38
2023-02-07T19:30:34.527Z,23.80
2023-02-07T19:33:25.980Z,37.83
2023-02-07T19:36:15.772Z,49.67
2023-02-07T19:39:07.199Z,57.63
2023-02-07T19:41:46.479Z,88.07
2023-02-07T19:44:31.972Z,61.53
2023-02-07T19:48:02.047Z,35.22
2023-02-07T19:57:02.604Z,26.40
2023-02-07T19:59:53.450Z,26.58
2023-02-07T20:02:56.362Z,24.88
2023-02-07T20:08:40.314Z,31.70
2023-02-07T20:14:14.118Z,42.10
2023-02-07T20:23:10.516Z,33.50
2023-02-07T20:28:53.597Z,59.25
2023-02-07T20:31:37.162Z,46.05
2023-02-07T20:34:28.016Z,32.63
2023-02-07T20:37:06.296Z,43.40
2023-02-07T20:39:44.795Z,46.42
2023-02-07T20:45:23.840Z,64.05
2023-02-07T20:57:33.440Z,32.73
2023-02-07T21:06:11.317Z,35.22
2023-02-07T21:11:51.841Z,35.70
2023-02-07T21:18:18.156Z,33.10
2023-02-07T21:20:57.158Z,55.70
2023-02-07T21:23:43.338Z,60.95
2023-02-07T21:26:25.973Z,138.85
2023-02-07T21:29:04.951Z,59.67
2023-02-07T21:32:02.527Z,51.30
2023-02-07T21:34:57.415Z,44.28
2023-02-07T21:37:36.166Z,35.03
2023-02-07T21:40:30.733Z,26.93
2023-02-07T21:43:10.843Z,29.57
2023-02-07T21:46:03.200Z,28.30
2023-02-07T21:48:48.284Z,27.80
2023-02-07T21:51:45.620Z,37.35
2023-02-07T21:57:44.859Z,29.02
2023-02-07T22:00:32.743Z,34.03
2023-02-07T22:03:13.398Z,29.33
2023-02-07T22:05:52.921Z,28.83
2023-02-07T22:08:36.543Z,29.90
2023-02-07T22:11:20.505Z,30.25
2023-02-07T22:13:59.476Z,30.57
2023-02-07T22:16:53.349Z,28.45
2023-02-07T22:19:33.747Z,27.35
2023-02-07T22:22:06.486Z,29.15
2023-02-07T22:24:55.819Z,24.95
2023-02-07T22:27:37.450Z,27.83
2023-02-07T22:33:19.361Z,31.90
2023-02-07T22:36:19.294Z,31.17
2023-02-07T22:39:02.245Z,29.67
2023-02-07T22:41:43.309Z,28.27
2023-02-07T22:44:31.250Z,27.40
2023-02-07T22:47:17.215Z,28.60
2023-02-07T22:49:57.933Z,28.90
2023-02-07T22:52:47.600Z,25.17
2023-02-07T23:04:42.145Z,24.95
2023-02-07T23:07:47.604Z,26.58
2023-02-07T23:13:34.308Z,30.70
2023-02-07T23:16:47.470Z,29.90
2023-02-07T23:20:00.114Z,30.45
2023-02-07T23:29:30.477Z,25.02
2023-02-07T23:32:18.168Z,22.73
2023-02-07T23:35:11.406Z,24.88
2023-02-07T23:52:53.313Z,26.30
2023-02-07T23:55:44.107Z,23.40
